Time;durP1;ratioP1;P1;durP2;ratioP2;P2;SDS_P1;SDS_P2;PMS_P1;PMS_P2;Temp;Humidity;BMP_temperature;BMP_pressure;BME280_temperature;BME280_humidity;BME280_pressure;Samples;Min_cycle;Max_cycle;Signal;HPM_P1;HPM_P2
2023/03/13 00:00:14;;;;;;;;;;;;;;;-142.75;100.00;76143.16;5053905;28;19995;-66
2023/03/13 00:02:39;;;;;;;;;;;;;;;-142.75;100.00;76141.19;5053805;28;19913;-66
2023/03/13 00:05:04;;;;;;;;;;;;;;;-142.75;100.00;76125.44;5052036;28;20441;-65
2023/03/13 00:07:30;;;;;;;;;;;;;;;-142.75;100.00;76119.53;5052559;28;20396;-63
2023/03/13 00:09:55;;;;;;;;;;;;;;;-142.75;100.00;76115.59;5053730;28;19974;-66
2023/03/13 00:12:20;;;;;;;;;;;;;;;-142.75;100.00;76101.81;5053510;28;19920;-65
2023/03/13 00:14:46;;;;;;;;;;;;;;;-142.75;100.00;76090.00;5053649;28;19917;-65
2023/03/13 00:17:11;;;;;;;;;;;;;;;-142.75;100.00;76082.13;5053620;28;20303;-65
2023/03/13 00:19:36;;;;;;;;;;;;;;;-142.75;100.00;76070.34;5053504;28;19913;-64
2023/03/13 00:22:01;;;;;;;;;;;;;;;-142.75;100.00;76070.34;5053344;28;19920;-65
2023/03/13 00:24:26;;;;;;;;;;;;;;;-142.75;100.00;76066.41;5052142;28;19913;-64
2023/03/13 00:26:52;;;;;;;;;;;;;;;-142.75;100.00;76036.88;5053435;28;19913;-65
2023/03/13 00:29:17;;;;;;;;;;;;;;;-142.75;100.00;76025.06;5053219;28;19916;-66
2023/03/13 00:31:42;;;;;;;;;;;;;;;-142.75;100.00;76027.03;5051711;28;19923;-65
2023/03/13 00:34:07;;;;;;;;;;;;;;;-142.75;100.00;76013.25;5053293;28;20003;-66
2023/03/13 00:36:33;;;;;;;;;;;;;;;-142.75;100.00;76011.28;5053300;28;19967;-66
2023/03/13 00:38:59;;;;;;;;;;;;;;;-142.75;100.00;75993.56;5053258;28;19913;-65
2023/03/13 00:41:25;;;;;;;;;;;;;;;-142.75;100.00;75987.66;5053062;28;20015;-66
2023/03/13 00:43:51;;;;;;;;;;;;;;;-142.75;100.00;75977.81;5052842;28;19913;-66
2023/03/13 00:46:18;;;;;;;;;;;;;;;-142.75;100.00;75995.53;5051846;28;20375;-65
2023/03/13 00:48:43;;;;;;;;;;;;;;;-142.75;100.00;75979.78;5053066;28;19957;-64
2023/03/13 00:51:09;;;;;;;;;;;;;;;-142.75;100.00;75954.22;5051655;28;19913;-64
2023/03/13 00:53:34;;;;;;;;;;;;;;;-142.75;100.00;75958.16;5051225;28;19921;-64
2023/03/13 00:56:01;;;;;;;;;;;;;;;-142.75;100.00;75944.38;5051506;28;19913;-64
2023/03/13 00:58:28;;;;;;;;;;;;;;;-142.75;100.00;75944.38;5052659;28;19913;-65
2023/03/13 01:00:53;;;;;;;;;;;;;;;-142.75;100.00;75936.50;5052657;28;20011;-64
2023/03/13 01:03:19;;;;;;;;;;;;;;;-142.75;100.00;75918.78;5052501;28;20612;-63
2023/03/13 01:05:44;;;;;;;;;;;;;;;-142.75;100.00;75920.75;5052541;28;19921;-65
2023/03/13 01:08:09;;;;;;;;;;;;;;;-142.75;100.00;75908.94;5052521;28;19956;-65
2023/03/13 01:10:35;;;;;;;;;;;;;;;-142.75;100.00;75901.06;5052558;28;19963;-65
2023/03/13 01:13:00;;;;;;;;;;;;;;;-142.75;100.00;75887.28;5051095;28;19921;-63
2023/03/13 01:15:26;;;;;;;;;;;;;;;-142.75;100.00;75887.28;5051201;28;19956;-65
2023/03/13 01:17:51;;;;;;;;;;;;;;;-142.75;100.00;75885.31;5052471;28;19917;-64
2023/03/13 01:20:16;;;;;;;;;;;;;;;-142.75;100.00;75869.56;5051686;28;19913;-65
2023/03/13 01:22:41;;;;;;;;;;;;;;;-142.75;100.00;75861.69;5051002;28;19913;-64
2023/03/13 01:25:07;;;;;;;;;;;;;;;-142.75;100.00;75845.97;5052344;28;19920;-65
2023/03/13 01:27:32;;;;;;;;;;;;;;;-142.75;100.00;75842.03;5052283;28;19920;-64
2023/03/13 01:29:57;;;;;;;;;;;;;;;-142.75;100.00;75844.00;5052133;28;19917;-64
2023/03/13 01:32:22;;;;;;;;;;;;;;;-142.75;100.00;75828.25;5052123;28;19916;-65
2023/03/13 01:34:48;;;;;;;;;;;;;;;-142.75;100.00;75818.41;5052183;28;19913;-64
2023/03/13 01:37:13;;;;;;;;;;;;;;;-142.75;100.00;75822.34;5052045;28;19912;-64
2023/03/13 01:39:38;;;;;;;;;;;;;;;-142.75;100.00;75796.75;5052079;28;19920;-64
2023/03/13 01:42:03;;;;;;;;;;;;;;;-142.75;100.00;75798.72;5052003;28;19967;-65
2023/03/13 01:44:29;;;;;;;;;;;;;;;-142.75;100.00;75790.84;5052068;28;20522;-64
2023/03/13 01:46:54;;;;;;;;;;;;;;;-142.75;100.00;75777.06;5052140;28;20392;-64
2023/03/13 01:49:26;;;;;;;;;;;;;;;-142.75;100.00;75761.34;5052093;28;20410;-64
2023/03/13 01:52:02;;;;;;;;;;;;;;;-142.75;100.00;75782.97;5051688;28;19971;-63
2023/03/13 01:54:39;;;;;;;;;;;;;;;-142.75;100.00;75751.50;5051733;28;19913;-64
2023/03/13 01:57:06;;;;;;;;;;;;;;;-142.75;100.00;75747.56;5051877;28;19971;-64
2023/03/13 01:59:44;;;;;;;;;;;;;;;-142.75;100.00;75735.75;5052011;28;20005;-64
2023/03/13 02:02:10;;;;;;;;;;;;;;;-142.75;100.00;75721.97;5051836;28;20008;-64
2023/03/13 02:04:37;;;;;;;;;;;;;;;-142.75;100.00;75720.00;5051786;28;20008;-64
2023/03/13 02:07:06;;;;;;;;;;;;;;;-142.75;100.00;75708.19;5051788;28;20000;-64
2023/03/13 02:09:32;;;;;;;;;;;;;;;-142.75;100.00;75698.34;5051895;28;20356;-65
2023/03/13 02:12:03;;;;;;;;;;;;;;;-142.75;100.00;75700.31;5050279;28;20331;-64
2023/03/13 02:14:30;;;;;;;;;;;;;;;-142.75;100.00;75692.44;5051807;28;19913;-64
2023/03/13 02:16:56;;;;;;;;;;;;;;;-142.75;100.00;75676.69;5051806;28;19913;-65
2023/03/13 02:19:27;;;;;;;;;;;;;;;-142.75;100.00;75670.81;5051713;28;19913;-64
2023/03/13 02:21:56;;;;;;;;;;;;;;;-142.75;100.00;75680.63;5051552;28;19931;-64
2023/03/13 02:24:31;;;;;;;;;;;;;;;-142.75;100.00;75664.91;5051667;28;19952;-64
2023/03/13 02:26:57;;;;;;;;;;;;;;;-142.75;100.00;75662.94;5051771;28;19958;-65
2023/03/13 02:29:23;;;;;;;;;;;;;;;-142.75;100.00;75651.13;5051580;28;20401;-65
2023/03/13 02:31:49;;;;;;;;;;;;;;;-142.75;100.00;75637.34;5051650;28;20286;-64
2023/03/13 02:34:17;;;;;;;;;;;;;;;-142.75;100.00;75637.34;5051535;28;19920;-65
2023/03/13 02:36:43;;;;;;;;;;;;;;;-142.75;100.00;75627.50;5051690;28;20346;-65
2023/03/13 02:39:10;;;;;;;;;;;;;;;-142.75;100.00;75621.59;5051598;28;20301;-65
2023/03/13 02:41:35;;;;;;;;;;;;;;;-142.75;100.00;75619.63;5051366;28;19921;-65
2023/03/13 02:44:01;;;;;;;;;;;;;;;-142.75;100.00;75613.72;5051550;28;20346;-63
2023/03/13 02:46:26;;;;;;;;;;;;;;;-142.75;100.00;75603.88;5051483;28;20268;-65
2023/03/13 02:48:52;;;;;;;;;;;;;;;-142.75;100.00;75597.97;5050212;28;20387;-64
2023/03/13 02:51:17;;;;;;;;;;;;;;;-142.75;100.00;75601.91;5051409;28;19962;-65
2023/03/13 02:53:43;;;;;;;;;;;;;;;-142.75;100.00;75592.09;5050935;28;19920;-65
2023/03/13 02:56:10;;;;;;;;;;;;;;;-142.75;100.00;75588.16;5051846;28;20307;-64
2023/03/13 02:58:39;;;;;;;;;;;;;;;-142.75;100.00;75576.34;5051146;28;19917;-65
2023/03/13 03:01:06;;;;;;;;;;;;;;;-142.75;100.00;75568.47;5051248;28;19913;-64
2023/03/13 03:03:32;;;;;;;;;;;;;;;-142.75;100.00;75560.59;5051163;28;19917;-64
2023/03/13 03:05:57;;;;;;;;;;;;;;;-142.75;100.00;75556.66;5051371;28;19920;-65
2023/03/13 03:08:22;;;;;;;;;;;;;;;-142.75;100.00;75550.75;5053690;28;19912;-64
2023/03/13 03:10:48;;;;;;;;;;;;;;;-142.75;100.00;75538.94;5054855;28;19913;-66
2023/03/13 03:13:13;;;;;;;;;;;;;;;-142.75;100.00;75542.88;5054717;28;19924;-65
2023/03/13 03:15:38;;;;;;;;;;;;;;;-142.75;100.00;75536.97;5054701;28;19920;-65
2023/03/13 03:18:03;;;;;;;;;;;;;;;-142.75;100.00;75535.00;5053443;28;20398;-65
2023/03/13 03:20:29;;;;;;;;;;;;;;;-142.75;100.00;75531.06;5054639;28;19949;-65
2023/03/13 03:22:54;;;;;;;;;;;;;;;-142.75;100.00;75533.03;5053303;28;19916;-65
2023/03/13 03:25:19;;;;;;;;;;;;;;;-142.75;100.00;75521.22;5053285;28;19936;-66
2023/03/13 03:27:44;;;;;;;;;;;;;;;-142.75;100.00;75523.19;5054578;28;20550;-65
2023/03/13 03:30:10;;;;;;;;;;;;;;;-142.75;100.00;75519.25;5054343;28;19924;-65
2023/03/13 03:32:35;;;;;;;;;;;;;;;-142.75;100.00;75531.06;5054222;28;19917;-64
2023/03/13 03:35:00;;;;;;;;;;;;;;;-142.75;100.00;75519.25;5054364;28;19912;-66
2023/03/13 03:37:26;;;;;;;;;;;;;;;-142.75;100.00;75507.47;5054433;28;19919;-65
2023/03/13 03:39:51;;;;;;;;;;;;;;;-142.75;100.00;75521.22;5054238;28;20003;-65
2023/03/13 03:42:16;;;;;;;;;;;;;;;-142.75;100.00;75511.41;5052901;28;19963;-64
2023/03/13 03:44:41;;;;;;;;;;;;;;;-142.75;100.00;75505.50;5054241;28;19913;-65
2023/03/13 03:47:06;;;;;;;;;;;;;;;-142.75;100.00;75493.69;5052900;28;19917;-65
2023/03/13 03:49:32;;;;;;;;;;;;;;;-142.75;100.00;75499.59;5054220;28;19913;-65
2023/03/13 03:51:57;;;;;;;;;;;;;;;-142.75;100.00;75499.59;5052556;28;19917;-66
2023/03/13 03:54:22;;;;;;;;;;;;;;;-142.75;100.00;75487.78;5054095;28;19913;-65
2023/03/13 03:56:47;;;;;;;;;;;;;;;-142.75;100.00;75495.66;5054077;28;19935;-65
2023/03/13 03:59:12;;;;;;;;;;;;;;;-142.75;100.00;75479.91;5053999;28;19917;-66
2023/03/13 04:01:38;;;;;;;;;;;;;;;-142.75;100.00;75479.91;5052373;28;19919;-64
2023/03/13 04:04:03;;;;;;;;;;;;;;;-142.75;100.00;75479.91;5053860;28;19920;-64
2023/03/13 04:06:29;;;;;;;;;;;;;;;-142.75;100.00;75474.00;5053831;28;19916;-65
2023/03/13 04:08:54;;;;;;;;;;;;;;;-142.75;100.00;75468.09;5053714;28;19919;-66
2023/03/13 04:11:20;;;;;;;;;;;;;;;-142.75;100.00;75472.03;5053644;28;19913;-65
2023/03/13 04:13:45;;;;;;;;;;;;;;;-142.75;100.00;75472.03;5053459;28;19917;-65
2023/03/13 04:16:11;;;;;;;;;;;;;;;-142.75;100.00;75458.25;5053607;28;19913;-66
2023/03/13 04:18:36;;;;;;;;;;;;;;;-142.75;100.00;75460.22;5053202;28;19920;-64
2023/03/13 04:21:02;;;;;;;;;;;;;;;-142.75;100.00;75458.25;5053536;28;19913;-65
2023/03/13 04:23:28;;;;;;;;;;;;;;;-142.75;100.00;75452.34;5053350;28;20394;-65
2023/03/13 04:25:53;;;;;;;;;;;;;;;-142.75;100.00;75444.47;5053542;28;19913;-65
2023/03/13 04:28:18;;;;;;;;;;;;;;;-142.75;100.00;75464.16;5053417;28;19913;-65
2023/03/13 04:30:43;;;;;;;;;;;;;;;-142.75;100.00;75456.28;5051938;28;19921;-65
2023/03/13 04:33:09;;;;;;;;;;;;;;;-142.75;100.00;75432.69;5053228;28;19975;-65
2023/03/13 04:35:34;;;;;;;;;;;;;;;-142.75;100.00;75434.66;5053240;28;20383;-64
2023/03/13 04:38:00;;;;;;;;;;;;;;;-142.75;100.00;75426.78;5053244;28;19913;-66
2023/03/13 04:40:25;;;;;;;;;;;;;;;-142.75;100.00;75428.75;5051838;28;19917;-65
2023/03/13 04:42:50;;;;;;;;;;;;;;;-142.75;100.00;75405.13;5051786;28;20026;-65
2023/03/13 04:45:15;;;;;;;;;;;;;;;-142.75;100.00;75420.88;5053086;28;19970;-63
2023/03/13 04:47:41;;;;;;;;;;;;;;;-142.75;100.00;75411.03;5051772;28;20008;-65
2023/03/13 04:50:06;;;;;;;;;;;;;;;-142.75;100.00;75422.84;5051719;28;19959;-65
2023/03/13 04:52:31;;;;;;;;;;;;;;;-142.75;100.00;75411.03;5052799;28;19964;-65
2023/03/13 04:54:56;;;;;;;;;;;;;;;-142.75;100.00;75385.44;5052895;28;19916;-66
2023/03/13 04:57:22;;;;;;;;;;;;;;;-142.75;100.00;75385.44;5052966;28;19912;-65
2023/03/13 04:59:47;;;;;;;;;;;;;;;-142.75;100.00;75385.44;5052763;28;20288;-65
2023/03/13 05:02:12;;;;;;;;;;;;;;;-142.75;100.00;75389.38;5052598;28;19948;-66
2023/03/13 05:04:38;;;;;;;;;;;;;;;-142.75;100.00;75375.59;5052719;28;19991;-66
2023/03/13 05:07:03;;;;;;;;;;;;;;;-142.75;100.00;75363.78;5052640;28;20399;-66
2023/03/13 05:09:28;;;;;;;;;;;;;;;-142.75;100.00;75363.78;5052707;28;19934;-66
2023/03/13 05:11:53;;;;;;;;;;;;;;;-142.75;100.00;75363.78;5052192;28;19948;-66
2023/03/13 05:14:19;;;;;;;;;;;;;;;-142.75;100.00;75381.50;5051303;28;19913;-64
2023/03/13 05:16:44;;;;;;;;;;;;;;;-142.75;100.00;75361.84;5052517;28;20059;-65
2023/03/13 05:19:09;;;;;;;;;;;;;;;-142.75;100.00;75363.78;5052525;28;20006;-65
2023/03/13 05:21:34;;;;;;;;;;;;;;;-142.75;100.00;75346.09;5052062;28;19916;-64
2023/03/13 05:23:59;;;;;;;;;;;;;;;-142.75;100.00;75357.91;5052297;28;19913;-65
2023/03/13 05:26:24;;;;;;;;;;;;;;;-142.75;100.00;75377.56;5052425;28;20309;-65
2023/03/13 05:28:50;;;;;;;;;;;;;;;-142.75;100.00;75367.72;5052426;28;19920;-65
2023/03/13 05:31:15;;;;;;;;;;;;;;;-142.75;100.00;75367.72;5049921;28;19917;-65
2023/03/13 05:33:40;;;;;;;;;;;;;;;-142.75;100.00;75365.75;5052043;28;19917;-65
2023/03/13 05:36:06;;;;;;;;;;;;;;;-142.75;100.00;75373.63;5051061;28;19912;-66
2023/03/13 05:38:31;;;;;;;;;;;;;;;-142.75;100.00;75375.59;5052099;28;20292;-66
2023/03/13 05:40:56;;;;;;;;;;;;;;;-142.75;100.00;75371.66;5052131;28;20025;-66
2023/03/13 05:43:21;;;;;;;;;;;;;;;-142.75;100.00;75369.69;5052082;28;19917;-66
2023/03/13 05:45:47;;;;;;;;;;;;;;;-142.75;100.00;75369.69;5052026;28;20054;-65
2023/03/13 05:48:12;;;;;;;;;;;;;;;-142.75;100.00;75387.41;5052121;28;19920;-66
2023/03/13 05:50:37;;;;;;;;;;;;;;;-142.75;100.00;75385.44;5050402;28;19917;-66
2023/03/13 05:53:02;;;;;;;;;;;;;;;-142.75;100.00;75389.38;5051874;28;19924;-66
2023/03/13 05:55:27;;;;;;;;;;;;;;;-142.75;100.00;75399.22;5050729;28;19920;-66
2023/03/13 05:57:53;;;;;;;;;;;;;;;-142.75;100.00;75399.22;5052065;28;19912;-66
2023/03/13 06:00:18;;;;;;;;;;;;;;;-142.75;100.00;75395.28;5051827;28;19913;-66
2023/03/13 06:02:43;;;;;;;;;;;;;;;-142.75;100.00;75395.28;5051894;28;19919;-66
2023/03/13 06:05:09;;;;;;;;;;;;;;;-142.75;100.00;75385.44;5051893;28;20387;-65
2023/03/13 06:07:34;;;;;;;;;;;;;;;-142.75;100.00;75413.00;5051763;28;20016;-65
2023/03/13 06:09:59;;;;;;;;;;;;;;;-142.75;100.00;75409.06;5050601;28;19920;-66
2023/03/13 06:12:25;;;;;;;;;;;;;;;-142.75;100.00;75409.06;5051714;28;19923;-66
2023/03/13 06:14:50;;;;;;;;;;;;;;;-142.75;100.00;75393.31;5051678;28;19913;-66
2023/03/13 06:17:15;;;;;;;;;;;;;;;-142.75;100.00;75395.28;5050588;28;20387;-67
2023/03/13 06:19:40;;;;;;;;;;;;;;;-142.75;100.00;75395.28;5051754;28;19913;-66
2023/03/13 06:22:05;;;;;;;;;;;;;;;-142.75;100.00;75385.44;5050385;28;19963;-66
2023/03/13 06:24:31;;;;;;;;;;;;;;;-142.75;100.00;75409.06;5051694;28;19920;-67
2023/03/13 06:26:56;;;;;;;;;;;;;;;-142.75;100.00;75401.19;5051811;28;20368;-67
2023/03/13 06:29:23;;;;;;;;;;;;;;;-142.75;100.00;75389.38;5051524;28;19973;-66
2023/03/13 06:31:48;;;;;;;;;;;;;;;-142.75;100.00;75401.19;5051380;28;19920;-67
2023/03/13 06:34:13;;;;;;;;;;;;;;;-142.75;100.00;75414.97;5051558;28;19974;-66
2023/03/13 06:36:39;;;;;;;;;;;;;;;-142.75;100.00;75383.47;5051748;28;20303;-66
2023/03/13 06:39:05;;;;;;;;;;;;;;;-142.75;100.00;75401.19;5051641;28;20019;-66
2023/03/13 06:41:30;;;;;;;;;;;;;;;-142.75;100.00;75387.41;5052659;28;19913;-66
2023/03/13 06:43:55;;;;;;;;;;;;;;;-142.75;100.00;75401.19;5055093;28;19919;-66
2023/03/13 06:46:22;;;;;;;;;;;;;;;-142.75;100.00;75395.28;5055507;28;20011;-66
2023/03/13 06:48:47;;;;;;;;;;;;;;;-142.75;100.00;75409.06;5054069;28;20003;-66
2023/03/13 06:51:14;;;;;;;;;;;;;;;-142.75;100.00;75407.09;5053523;28;20356;-66
2023/03/13 06:53:39;;;;;;;;;;;;;;;-142.75;100.00;75411.03;5054737;28;19920;-66
2023/03/13 06:56:05;;;;;;;;;;;;;;;-142.75;100.00;75403.16;5055189;28;19917;-66
2023/03/13 06:58:30;;;;;;;;;;;;;;;-142.75;100.00;75407.09;5053338;28;19935;-65
2023/03/13 07:00:55;;;;;;;;;;;;;;;-142.75;100.00;75409.06;5055031;28;20264;-67
2023/03/13 07:03:21;;;;;;;;;;;;;;;-142.75;100.00;75416.94;5053656;28;19940;-65
2023/03/13 07:05:46;;;;;;;;;;;;;;;-142.75;100.00;75420.88;5054987;28;20396;-66
2023/03/13 07:08:11;;;;;;;;;;;;;;;-142.75;100.00;75413.00;5054758;28;19913;-64
2023/03/13 07:10:36;;;;;;;;;;;;;;;-142.75;100.00;75411.03;5054847;28;19916;-66
2023/03/13 07:13:01;;;;;;;;;;;;;;;-142.75;100.00;75395.28;5054529;28;20276;-65
2023/03/13 07:15:27;;;;;;;;;;;;;;;-142.75;100.00;75397.25;5054712;28;19917;-66
2023/03/13 07:17:52;;;;;;;;;;;;;;;-142.75;100.00;75413.00;5054767;28;19917;-66
2023/03/13 07:20:20;;;;;;;;;;;;;;;-142.75;100.00;75403.16;5055118;28;20003;-66
2023/03/13 07:22:49;;;;;;;;;;;;;;;-142.75;100.00;75401.19;5054596;28;20295;-67
2023/03/13 07:25:14;;;;;;;;;;;;;;;-142.75;100.00;75393.31;5054571;28;19932;-66
2023/03/13 07:27:40;;;;;;;;;;;;;;;-142.75;100.00;75401.19;5054516;28;19913;-66
2023/03/13 07:30:05;;;;;;;;;;;;;;;-142.75;100.00;75409.06;5054077;28;19948;-66
2023/03/13 07:32:32;;;;;;;;;;;;;;;-142.75;100.00;75414.97;5052929;28;20019;-64
2023/03/13 07:34:57;;;;;;;;;;;;;;;-142.75;100.00;75393.31;5053158;28;19913;-66
2023/03/13 07:37:22;;;;;;;;;;;;;;;-142.75;100.00;75401.19;5053065;28;19912;-66
2023/03/13 07:39:47;;;;;;;;;;;;;;;-142.75;100.00;75383.47;5054344;28;19919;-66
2023/03/13 07:42:12;;;;;;;;;;;;;;;-142.75;100.00;75389.38;5054150;28;20299;-66
2023/03/13 07:44:37;;;;;;;;;;;;;;;-142.75;100.00;75379.53;5054215;28;20291;-65
2023/03/13 07:47:03;;;;;;;;;;;;;;;-142.75;100.00;75373.63;5054297;28;19913;-66
2023/03/13 07:49:28;;;;;;;;;;;;;;;-142.75;100.00;75350.03;5054224;28;20439;-66
2023/03/13 07:51:54;;;;;;;;;;;;;;;-142.75;100.00;75353.97;5052229;28;19920;-65
2023/03/13 07:54:19;;;;;;;;;;;;;;;-142.75;100.00;75365.75;5053145;28;20308;-67
2023/03/13 07:56:44;;;;;;;;;;;;;;;-142.75;100.00;75383.47;5054093;28;19960;-66
2023/03/13 07:59:09;;;;;;;;;;;;;;;-142.75;100.00;75377.56;5054019;28;19912;-67
2023/03/13 08:01:35;;;;;;;;;;;;;;;-142.75;100.00;75361.84;5053781;28;19917;-65
2023/03/13 08:04:00;;;;;;;;;;;;;;;-142.75;100.00;75375.59;5052082;28;19919;-66
2023/03/13 08:06:26;;;;;;;;;;;;;;;-142.75;100.00;75367.72;5053362;28;19917;-68
2023/03/13 08:08:52;;;;;;;;;;;;;;;-142.75;100.00;75363.78;5053456;28;19948;-67
2023/03/13 08:11:19;;;;;;;;;;;;;;;-142.75;100.00;75371.66;5052464;28;19912;-67
2023/03/13 08:13:44;;;;;;;;;;;;;;;-142.75;100.00;75367.72;5052533;28;19921;-66
2023/03/13 08:16:14;;;;;;;;;;;;;;;-142.75;100.00;75369.69;5052475;28;19913;-66
2023/03/13 08:18:43;;;;;;;;;;;;;;;-142.75;100.00;75353.97;5053566;28;20012;-64
2023/03/13 08:21:09;;;;;;;;;;;;;;;-142.75;100.00;75355.94;5053847;28;20385;-67
2023/03/13 08:23:35;;;;;;;;;;;;;;;-142.75;100.00;75350.03;5049412;28;20392;-68
2023/03/13 08:26:01;;;;;;;;;;;;;;;-142.75;100.00;75353.97;5047546;28;19923;-66
2023/03/13 08:28:26;;;;;;;;;;;;;;;-142.75;100.00;75342.16;5052157;28;19912;-68
2023/03/13 08:30:52;;;;;;;;;;;;;;;-142.75;100.00;75348.06;5052519;28;19916;-67
2023/03/13 08:33:17;;;;;;;;;;;;;;;-142.75;100.00;75346.09;5052633;28;19968;-68
2023/03/13 08:35:42;;;;;;;;;;;;;;;-142.75;100.00;75348.06;5052414;28;20011;-68
2023/03/13 08:38:07;;;;;;;;;;;;;;;-142.75;100.00;75334.28;5052628;28;19960;-68
2023/03/13 08:40:33;;;;;;;;;;;;;;;-142.75;100.00;75314.59;5051253;28;20413;-67
2023/03/13 08:42:58;;;;;;;;;;;;;;;-142.75;100.00;75322.47;5052576;28;20007;-68
2023/03/13 08:45:23;;;;;;;;;;;;;;;-142.75;100.00;75298.84;5050645;28;19961;-67
2023/03/13 08:47:51;;;;;;;;;;;;;;;-142.75;100.00;75229.97;5051177;28;20003;-67
2023/03/13 08:50:16;;;;;;;;;;;;;;;-142.75;100.00;75165.03;5051222;28;20011;-67
2023/03/13 08:52:42;;;;;;;;;;;;;;;-142.75;100.00;75102.06;5048781;28;20475;-67
2023/03/13 08:55:08;;;;;;;;;;;;;;;-142.75;100.00;75090.28;5052453;28;20399;-65
2023/03/13 08:57:33;;;;;;;;;;;;;;;-142.75;100.00;75090.28;5051455;28;19924;-67
2023/03/13 08:59:58;;;;;;;;;;;;;;;-142.75;100.00;75092.25;5052188;28;19913;-67
2023/03/13 09:02:23;;;;;;;;;;;;;;;-142.75;100.00;75052.88;5052430;28;19920;-66
2023/03/13 09:04:49;;;;;;;;;;;;;;;-142.75;100.00;75052.88;5052521;28;19913;-69
2023/03/13 09:07:14;;;;;;;;;;;;;;;-142.75;100.00;75031.25;5052436;28;19971;-68
2023/03/13 09:09:39;;;;;;;;;;;;;;;-142.75;100.00;75017.47;5052913;28;19959;-68
2023/03/13 09:12:05;;;;;;;;;;;;;;;-142.75;100.00;75054.84;5052202;28;19947;-68
2023/03/13 09:14:30;;;;;;;;;;;;;;;-142.75;100.00;75107.97;5051150;28;19979;-69
2023/03/13 09:16:56;;;;;;;;;;;;;;;-142.75;100.00;75117.81;5052396;28;19920;-69
2023/03/13 09:19:21;;;;;;;;;;;;;;;-142.75;100.00;75121.75;5052330;28;19913;-69
2023/03/13 09:21:48;;;;;;;;;;;;;;;-142.75;100.00;75064.69;5050928;28;19908;-67
2023/03/13 09:24:14;;;;;;;;;;;;;;;-142.75;100.00;75064.69;5052298;28;19935;-67
2023/03/13 09:26:39;;;;;;;;;;;;;;;-142.75;100.00;75086.34;5052277;28;19913;-68
2023/03/13 09:29:04;;;;;;;;;;;;;;;-142.75;100.00;75102.06;5051861;28;19923;-70
2023/03/13 09:31:30;;;;;;;;;;;;;;;-142.75;100.00;75145.38;5049692;28;20007;-68
2023/03/13 09:33:56;;;;;;;;;;;;;;;-142.75;100.00;75165.03;5051193;28;19917;-68
2023/03/13 09:36:23;;;;;;;;;;;;;;;-142.75;100.00;75165.03;5052759;28;21457;-68
2023/03/13 09:38:49;;;;;;;;;;;;;;;-142.75;100.00;75139.47;5052085;28;19952;-69
2023/03/13 09:41:21;;;;;;;;;;;;;;;-142.75;100.00;75113.88;5051501;28;19936;-69
2023/03/13 09:43:52;;;;;;;;;;;;;;;-142.75;100.00;75098.16;5051612;28;19923;-68
2023/03/13 09:46:24;;;;;;;;;;;;;;;-142.75;100.00;75123.72;5052215;28;19952;-68
2023/03/13 09:48:51;;;;;;;;;;;;;;;-142.75;100.00;75129.63;5051362;28;19917;-68
2023/03/13 09:51:35;;;;;;;;;;;;;;;-142.75;100.00;75107.97;5051303;28;19924;-68
2023/03/13 09:54:05;;;;;;;;;;;;;;;-142.75;100.00;75050.91;5049405;28;19943;-68
2023/03/13 09:56:35;;;;;;;;;;;;;;;-142.75;100.00;75068.63;5049022;28;19913;-68
2023/03/13 09:59:10;;;;;;;;;;;;;;;-142.75;100.00;75084.38;5051464;28;19959;-68
2023/03/13 10:01:37;;;;;;;;;;;;;;;-142.75;100.00;75102.06;5051687;28;19913;-68
2023/03/13 10:04:03;;;;;;;;;;;;;;;-142.75;100.00;75161.13;5031965;28;19913;-68
2023/03/13 10:06:32;;;;;;;;;;;;;;;-142.75;100.00;75153.25;5030845;28;19984;-67
2023/03/13 10:09:00;;;;;;;;;;;;;;;-142.75;100.00;75131.59;5031971;28;20000;-68
2023/03/13 10:11:28;;;;;;;;;;;;;;;-142.75;100.00;75137.50;5031903;28;19924;-67
2023/03/13 10:13:59;;;;;;;;;;;;;;;-142.75;100.00;75102.06;5031654;28;19961;-68
2023/03/13 10:16:30;;;;;;;;;;;;;;;-142.75;100.00;75123.72;5033057;28;20427;-68
2023/03/13 10:18:57;;;;;;;;;;;;;;;-142.75;100.00;75100.09;5036045;28;19913;-68
2023/03/13 10:21:23;;;;;;;;;;;;;;;-142.75;100.00;75100.09;5035855;28;19920;-67
2023/03/13 10:23:59;;;;;;;;;;;;;;;-142.75;100.00;75078.47;5035746;28;19920;-67
2023/03/13 10:26:29;;;;;;;;;;;;;;;-142.75;100.00;75094.22;5034597;28;19920;-68
2023/03/13 10:28:55;;;;;;;;;;;;;;;-142.75;100.00;75086.34;5035796;28;19913;-68
2023/03/13 10:31:35;;;;;;;;;;;;;;;-142.75;100.00;75082.41;5034380;28;19917;-68
2023/03/13 10:34:10;;;;;;;;;;;;;;;-142.75;100.00;75090.28;5034347;28;20007;-66
2023/03/13 10:36:43;;;;;;;;;;;;;;;-142.75;100.00;75068.63;5034492;28;20308;-65
2023/03/13 10:39:14;;;;;;;;;;;;;;;-142.75;100.00;75094.22;5035526;28;19971;-68
2023/03/13 10:41:39;;;;;;;;;;;;;;;-142.75;100.00;75117.81;5034054;28;19953;-68
2023/03/13 10:44:05;;;;;;;;;;;;;;;-142.75;100.00;75100.09;5035462;28;19917;-69
2023/03/13 10:46:32;;;;;;;;;;;;;;;-142.75;100.00;75011.56;5035492;28;19913;-68
2023/03/13 10:49:00;;;;;;;;;;;;;;;-142.75;100.00;74964.34;5035432;28;19913;-67
2023/03/13 10:51:30;;;;;;;;;;;;;;;-142.75;100.00;74889.56;5057277;28;20345;-64
2023/03/13 10:53:55;;;;;;;;;;;;;;;-142.75;100.00;74877.75;5074902;28;19917;-68
2023/03/13 10:56:30;;;;;;;;;;;;;;;-142.75;100.00;74820.69;5075199;28;20049;-69
2023/03/13 10:58:55;;;;;;;;;;;;;;;-142.75;100.00;74858.09;5075144;28;19916;-68
2023/03/13 11:01:22;;;;;;;;;;;;;;;-142.75;100.00;74834.47;5075029;28;20050;-68
2023/03/13 11:03:48;;;;;;;;;;;;;;;-142.75;100.00;74810.88;5074911;28;19912;-68
2023/03/13 11:06:33;;;;;;;;;;;;;;;-142.75;100.00;74834.47;5075091;28;19978;-66
2023/03/13 11:09:02;;;;;;;;;;;;;;;-142.75;100.00;74842.34;5074991;28;19947;-66
2023/03/13 11:11:29;;;;;;;;;;;;;;;-142.75;100.00;74828.56;5074882;28;19920;-68
2023/03/13 11:13:55;;;;;;;;;;;;;;;-142.75;100.00;74873.81;5074662;28;19975;-68
2023/03/13 11:16:27;;;;;;;;;;;;;;;-142.75;100.00;74879.72;5074770;28;19917;-69
2023/03/13 11:18:52;;;;;;;;;;;;;;;-142.75;100.00;74940.72;5073497;28;19912;-69
2023/03/13 11:21:23;;;;;;;;;;;;;;;-142.75;100.00;74938.75;5074639;28;19974;-68
2023/03/13 11:24:00;;;;;;;;;;;;;;;-142.75;100.00;74982.03;5074577;28;19912;-68
2023/03/13 11:26:25;;;;;;;;;;;;;;;-142.75;100.00;75050.91;5073699;28;20279;-68
2023/03/13 11:28:57;;;;;;;;;;;;;;;-142.75;100.00;75046.97;5072079;28;19991;-69
2023/03/13 11:31:32;;;;;;;;;;;;;;;-142.75;100.00;75027.31;5074488;28;20011;-68
2023/03/13 11:34:16;;;;;;;;;;;;;;;-142.75;100.00;75003.69;5074275;28;19923;-68
2023/03/13 11:36:47;;;;;;;;;;;;;;;-142.75;100.00;74991.88;5073214;28;19955;-69
2023/03/13 11:39:37;;;;;;;;;;;;;;;-142.75;100.00;74989.91;5063716;28;20292;-68
2023/03/13 11:42:05;;;;;;;;;;;;;;;-142.75;100.00;74980.06;5054152;28;19919;-69
2023/03/13 11:44:49;;;;;;;;;;;;;;;-142.75;100.00;74899.41;5054297;28;19913;-69
2023/03/13 11:47:14;;;;;;;;;;;;;;;-142.75;100.00;74787.25;5054146;28;19920;-68
2023/03/13 11:49:58;;;;;;;;;;;;;;;-142.75;100.00;74830.53;5054039;28;20376;-68
2023/03/13 11:52:26;;;;;;;;;;;;;;;-142.75;100.00;74917.13;5053945;28;19917;-67
2023/03/13 11:54:54;;;;;;;;;;;;;;;-142.75;100.00;74942.69;5054041;28;19966;-69
2023/03/13 11:57:45;;;;;;;;;;;;;;;-142.75;100.00;74928.91;5053789;28;19916;-69
2023/03/13 12:00:16;;;;;;;;;;;;;;;-142.75;100.00;74814.78;5030001;28;19912;-69
2023/03/13 12:02:55;;;;;;;;;;;;;;;-142.75;100.00;74736.09;5053847;28;19920;-69
2023/03/13 12:05:21;;;;;;;;;;;;;;;-142.75;100.00;74692.81;5052654;28;19913;-69
2023/03/13 12:08:03;;;;;;;;;;;;;;;-142.75;99.16;74710.50;5053931;28;19963;-70
2023/03/13 12:10:32;;;;;;;;;;;;;;;-142.75;96.30;74779.38;5053683;28;20380;-68
2023/03/13 12:13:11;;;;;;;;;;;;;;;-142.75;97.34;74793.16;5053594;28;19917;-69
2023/03/13 12:15:39;;;;;;;;;;;;;;;-142.75;98.60;74810.88;5053811;28;19912;-69